Eiwamaru — JG5742 — position and weather

sailwx.info

Track history (hours):
 
Tides and Currents Weather Stations Pressure Air Temp Water Temp Dewpoint Dewpoint Depression Visibility Wind Speed Wind Dir Waves Ship Positions

Eiwamaru

Last reported at 2015-Apr-18 07:28 UTC. Time now 2015-Apr-19 04:39 UTC.
Position N 35°03' E 139°35'.

Length 80 m; draft 5.4 m.

Type: Tanker. MMSI: 431101045.

Date/timePositionNaut miles runAvg speedWind from/ knotsBaromVisibWave heightAir tempDewpointWater temp
2015-Apr-18 07:28N 35°03' E 139°35'1011.3
2015-Apr-18 06:33N 35°10' E 139°44'10 9.8
2015-Apr-18 05:33N 35°20' E 139°43'1010.0
2015-Apr-18 04:33N 35°28' E 139°49'1110.2
2015-Apr-18 03:31N 35°31' E 140°01'0 0.1
2015-Apr-18 02:33N 35°31' E 140°02'1 0.6
2015-Apr-18 01:10N 35°31' E 140°02'0 0.0
2015-Apr-18 00:10N 35°31' E 140°02'0 0.0
2015-Apr-17 23:28N 35°31' E 140°02'0 0.0
2015-Apr-17 22:28N 35°31' E 140°02'0 0.0
2015-Apr-17 21:22N 35°31' E 140°02'0 0.1
2015-Apr-17 20:25N 35°31' E 140°02'3 3.0
2015-Apr-17 19:26N 35°32' E 139°59'0 0.0
2015-Apr-17 18:32N 35°32' E 139°59'0 0.0
2015-Apr-17 17:13N 35°32' E 139°59'0 0.0
2015-Apr-17 16:16N 35°32' E 139°59'0 0.0
2015-Apr-17 15:28N 35°32' E 139°59'0 0.0
2015-Apr-17 14:22N 35°32' E 139°59'0 0.1
2015-Apr-17 13:28N 35°32' E 139°59'0 0.1
2015-Apr-17 12:34N 35°32' E 139°59'0 0.0
2015-Apr-17 11:28N 35°32' E 139°59'0 0.0
2015-Apr-17 10:27N 35°32' E 139°59'0 0.0
2015-Apr-17 09:27N 35°32' E 139°59'0 0.1
2015-Apr-17 08:30N 35°32' E 139°59'0 0.0
2015-Apr-17 07:33N 35°32' E 139°59'0 0.0
2015-Apr-17 06:30N 35°32' E 139°59'0 0.0
2015-Apr-17 05:27N 35°32' E 139°59'0 0.0
2015-Apr-17 04:21N 35°32' E 139°59'0 0.0
2015-Apr-17 03:31N 35°32' E 139°59'0 0.0
2015-Apr-17 02:31N 35°32' E 139°59'0 0.0
2015-Apr-17 01:28N 35°32' E 139°59'0 0.0
2015-Apr-17 00:22N 35°32' E 139°59'1 0.8
2015-Apr-16 23:33N 35°33' E 140°00'6 6.0
2015-Apr-16 22:30N 35°36' E 140°07'0 0.0
2015-Apr-16 21:33N 35°36' E 140°07'0 0.0
2015-Apr-16 20:33N 35°36' E 140°07'0 0.0
2015-Apr-16 19:34N 35°36' E 140°07'0 0.0
2015-Apr-16 18:33N 35°36' E 140°07'0 0.0
2015-Apr-16 17:34N 35°36' E 140°07'0 0.0
2015-Apr-16 16:34N 35°36' E 140°07'0 0.0
2015-Apr-16 15:34N 35°36' E 140°07'0 0.0
2015-Apr-16 14:33N 35°36' E 140°07'0 0.0
2015-Apr-16 13:33N 35°36' E 140°07'0 0.0
2015-Apr-16 12:34N 35°36' E 140°07'0 0.0
2015-Apr-16 11:33N 35°36' E 140°07'0 0.0
2015-Apr-16 10:34N 35°36' E 140°07'0 0.0
2015-Apr-16 09:33N 35°36' E 140°07'0 0.0
2015-Apr-16 08:32N 35°36' E 140°07'0 0.0
2015-Apr-16 07:33N 35°36' E 140°07'0 0.0
2015-Apr-16 06:33N 35°36' E 140°07'0 0.0
2015-Apr-16 05:31N 35°36' E 140°07'0 0.0
2015-Apr-16 04:32N 35°36' E 140°07'0 0.0
2015-Apr-16 03:34N 35°36' E 140°07'0 0.0
2015-Apr-16 02:33N 35°36' E 140°07'0 0.0
2015-Apr-16 01:34N 35°36' E 140°07'0 0.0
2015-Apr-16 00:33N 35°36' E 140°07'0 0.0
2015-Apr-15 23:33N 35°36' E 140°07'8 7.2
2015-Apr-15 22:30N 35°31' E 139°59'0 0.1
2015-Apr-15 21:30N 35°31' E 139°59'0 0.0
2015-Apr-15 20:18N 35°31' E 139°59'0 0.1
2015-Apr-15 19:30N 35°31' E 139°59'0 0.0
2015-Apr-15 18:18N 35°31' E 139°59'0 0.0
2015-Apr-15 17:24N 35°31' E 139°59'0 0.0
2015-Apr-15 16:30N 35°31' E 139°59'0 0.0
2015-Apr-15 15:33N 35°31' E 139°59'0 0.0
2015-Apr-15 14:27N 35°31' E 139°59'0 0.1
2015-Apr-15 13:34N 35°31' E 139°59'0 0.0
2015-Apr-15 12:25N 35°31' E 139°59'0 0.0
2015-Apr-15 11:31N 35°31' E 139°59'0 0.0
2015-Apr-15 10:31N 35°31' E 139°59'0 0.0
2015-Apr-15 08:33N 35°31' E 139°59'0 0.0
2015-Apr-15 07:33N 35°31' E 139°59'0 0.0
2015-Apr-15 06:27N 35°31' E 139°59'0 0.0
2015-Apr-15 04:09N 35°31' E 139°59'0 0.0
2015-Apr-15 03:31N 35°31' E 139°59'0 0.0
2015-Apr-15 02:32N 35°31' E 139°59'0 0.0
2015-Apr-15 01:31N 35°31' E 139°59'0 0.0
2015-Apr-15 00:32N 35°31' E 139°59'0 0.0
2015-Apr-14 23:33N 35°31' E 139°59'0 0.0
2015-Apr-14 22:32N 35°31' E 139°59'0 0.0
2015-Apr-14 21:27N 35°31' E 139°59'0 0.0
2015-Apr-14 20:26N 35°31' E 139°59'0 0.0
2015-Apr-14 19:33N 35°31' E 139°59'0 0.0
2015-Apr-14 18:17N 35°31' E 139°59'0 0.1
2015-Apr-14 17:23N 35°31' E 139°59'0 0.1
2015-Apr-14 16:32N 35°31' E 139°59'0 0.0
2015-Apr-14 15:26N 35°31' E 139°59'0 0.1
2015-Apr-14 14:29N 35°31' E 139°59'0 0.0
2015-Apr-14 13:29N 35°31' E 139°59'0 0.0
2015-Apr-14 12:29N 35°31' E 139°59'0 0.0
2015-Apr-14 11:17N 35°31' E 139°59'3 3.6
2015-Apr-14 10:33N 35°30' E 139°56'1212.1
2015-Apr-14 09:34N 35°22' E 139°45'1111.4
2015-Apr-14 08:33N 35°10' E 139°47'1211.8
2015-Apr-14 07:33N 35°01' E 139°39'56 1.8
2015-Apr-12 23:19N 35°02' E 138°30'180 3.8
2015-Apr-11 00:32N 34°05' E 135°03'7 6.7
2015-Apr-10 23:33N 34°10' E 135°09'0 0.0
2015-Apr-10 22:29N 34°10' E 135°09'0 0.0
2015-Apr-10 21:23N 34°10' E 135°09'0 0.0
2015-Apr-10 20:32N 34°10' E 135°09'0 0.0
2015-Apr-10 19:32N 34°10' E 135°09'0 0.0
2015-Apr-10 18:32N 34°10' E 135°09'0 0.0
2015-Apr-10 17:32N 34°10' E 135°09'0 0.0
2015-Apr-10 16:32N 34°10' E 135°09'0 0.0
2015-Apr-10 15:32N 34°10' E 135°09'0 0.0
2015-Apr-10 14:32N 34°10' E 135°09'0 0.0
2015-Apr-10 13:32N 34°10' E 135°09'0 0.1
2015-Apr-10 12:32N 34°10' E 135°09'0 0.0
2015-Apr-10 11:32N 34°10' E 135°09'0 0.0
2015-Apr-10 10:32N 34°10' E 135°09'0 0.0
2015-Apr-10 09:23N 34°10' E 135°09'0 0.0
2015-Apr-10 08:29N 34°10' E 135°09'0 0.0
2015-Apr-10 07:30N 34°10' E 135°09'0 0.1
2015-Apr-10 06:31N 34°10' E 135°09'0 0.0
2015-Apr-10 05:33N 34°10' E 135°09'0 0.0
2015-Apr-10 04:33N 34°10' E 135°09'0 0.0
2015-Apr-10 03:33N 34°10' E 135°09'0 0.0
2015-Apr-10 02:27N 34°10' E 135°09'0 0.1
2015-Apr-10 01:33N 34°10' E 135°09'0 0.0
2015-Apr-10 00:33N 34°10' E 135°09'0 0.0
2015-Apr-09 23:30N 34°10' E 135°09'0 0.0
2015-Apr-09 22:30N 34°10' E 135°09'0 0.0
2015-Apr-09 21:30N 34°10' E 135°09'0 0.0
2015-Apr-09 20:33N 34°10' E 135°09'0 0.0
2015-Apr-09 19:33N 34°10' E 135°09'0 0.0
2015-Apr-09 18:33N 34°10' E 135°09'0 0.0
2015-Apr-09 17:33N 34°10' E 135°09'0 0.0
2015-Apr-09 16:33N 34°10' E 135°09'0 0.1
2015-Apr-09 15:33N 34°10' E 135°09'0 0.0
2015-Apr-09 14:30N 34°10' E 135°09'0 0.0
2015-Apr-09 13:33N 34°10' E 135°09'0 0.0
2015-Apr-09 12:30N 34°10' E 135°09'0 0.1
2015-Apr-09 11:33N 34°10' E 135°09'0 0.0
2015-Apr-09 10:30N 34°10' E 135°09'0 0.1
2015-Apr-09 09:33N 34°10' E 135°09'3 2.2
2015-Apr-09 08:10N 34°07' E 135°08'0 0.0
2015-Apr-09 07:33N 34°07' E 135°08'0 0.0
2015-Apr-09 05:26N 34°07' E 135°08'0 0.0
2015-Apr-09 04:22N 34°07' E 135°08'1 0.7
2015-Apr-09 02:33N 34°08' E 135°07'2 1.7
2015-Apr-09 01:33N 34°09' E 135°08'0 0.1
2015-Apr-09 00:33N 34°09' E 135°08'0 0.0
2015-Apr-08 23:33N 34°09' E 135°08'0 0.0
2015-Apr-08 22:33N 34°09' E 135°08'0 0.0
2015-Apr-08 21:33N 34°09' E 135°08'0 0.0
2015-Apr-08 20:33N 34°09' E 135°08'0 0.0
2015-Apr-08 19:33N 34°09' E 135°08'0 0.0
2015-Apr-08 18:33N 34°09' E 135°08'0 0.1
2015-Apr-08 17:33N 34°09' E 135°08'0 0.0
2015-Apr-08 16:33N 34°09' E 135°08'0 0.0
2015-Apr-08 15:33N 34°09' E 135°08'0 0.0
2015-Apr-08 14:33N 34°09' E 135°08'0 0.1
2015-Apr-08 13:33N 34°09' E 135°08'0 0.1
2015-Apr-08 12:33N 34°09' E 135°08'0 0.0
2015-Apr-08 11:33N 34°09' E 135°08'0 0.1
2015-Apr-08 10:33N 34°09' E 135°08'0 0.0
2015-Apr-08 09:33N 34°09' E 135°08'0 0.0
2015-Apr-08 08:33N 34°09' E 135°08'0 0.0
2015-Apr-08 07:33N 34°09' E 135°08'  
Track history (hours):
 
Tides and Currents Weather Stations Pressure Air Temp Water Temp Dewpoint Dewpoint Depression Visibility Wind Speed Wind Dir Waves Ship Positions

Eiwamaru

Last reported at 2015-Apr-18 07:28 UTC. Time now 2015-Apr-19 04:39 UTC.
Position N 35°03' E 139°35'.

Length 80 m; draft 5.4 m.

Type: Tanker. MMSI: 431101045.

Date/timePositionNaut miles runAvg speedWind from/ knotsBaromVisibWave heightAir tempDewpointWater temp
2015-Apr-18 07:28N 35°03' E 139°35'1011.3
2015-Apr-18 06:33N 35°10' E 139°44'10 9.8
2015-Apr-18 05:33N 35°20' E 139°43'1010.0
2015-Apr-18 04:33N 35°28' E 139°49'1110.2
2015-Apr-18 03:31N 35°31' E 140°01'0 0.1
2015-Apr-18 02:33N 35°31' E 140°02'1 0.6
2015-Apr-18 01:10N 35°31' E 140°02'0 0.0
2015-Apr-18 00:10N 35°31' E 140°02'0 0.0
2015-Apr-17 23:28N 35°31' E 140°02'0 0.0
2015-Apr-17 22:28N 35°31' E 140°02'0 0.0
2015-Apr-17 21:22N 35°31' E 140°02'0 0.1
2015-Apr-17 20:25N 35°31' E 140°02'3 3.0
2015-Apr-17 19:26N 35°32' E 139°59'0 0.0
2015-Apr-17 18:32N 35°32' E 139°59'0 0.0
2015-Apr-17 17:13N 35°32' E 139°59'0 0.0
2015-Apr-17 16:16N 35°32' E 139°59'0 0.0
2015-Apr-17 15:28N 35°32' E 139°59'0 0.0
2015-Apr-17 14:22N 35°32' E 139°59'0 0.1
2015-Apr-17 13:28N 35°32' E 139°59'0 0.1
2015-Apr-17 12:34N 35°32' E 139°59'0 0.0
2015-Apr-17 11:28N 35°32' E 139°59'0 0.0
2015-Apr-17 10:27N 35°32' E 139°59'0 0.0
2015-Apr-17 09:27N 35°32' E 139°59'0 0.1
2015-Apr-17 08:30N 35°32' E 139°59'0 0.0
2015-Apr-17 07:33N 35°32' E 139°59'0 0.0
2015-Apr-17 06:30N 35°32' E 139°59'0 0.0
2015-Apr-17 05:27N 35°32' E 139°59'0 0.0
2015-Apr-17 04:21N 35°32' E 139°59'0 0.0
2015-Apr-17 03:31N 35°32' E 139°59'0 0.0
2015-Apr-17 02:31N 35°32' E 139°59'0 0.0
2015-Apr-17 01:28N 35°32' E 139°59'0 0.0
2015-Apr-17 00:22N 35°32' E 139°59'1 0.8
2015-Apr-16 23:33N 35°33' E 140°00'6 6.0
2015-Apr-16 22:30N 35°36' E 140°07'0 0.0
2015-Apr-16 21:33N 35°36' E 140°07'0 0.0
2015-Apr-16 20:33N 35°36' E 140°07'0 0.0
2015-Apr-16 19:34N 35°36' E 140°07'0 0.0
2015-Apr-16 18:33N 35°36' E 140°07'0 0.0
2015-Apr-16 17:34N 35°36' E 140°07'0 0.0
2015-Apr-16 16:34N 35°36' E 140°07'0 0.0
2015-Apr-16 15:34N 35°36' E 140°07'0 0.0
2015-Apr-16 14:33N 35°36' E 140°07'0 0.0
2015-Apr-16 13:33N 35°36' E 140°07'0 0.0
2015-Apr-16 12:34N 35°36' E 140°07'0 0.0
2015-Apr-16 11:33N 35°36' E 140°07'0 0.0
2015-Apr-16 10:34N 35°36' E 140°07'0 0.0
2015-Apr-16 09:33N 35°36' E 140°07'0 0.0
2015-Apr-16 08:32N 35°36' E 140°07'0 0.0
2015-Apr-16 07:33N 35°36' E 140°07'0 0.0
2015-Apr-16 06:33N 35°36' E 140°07'0 0.0
2015-Apr-16 05:31N 35°36' E 140°07'0 0.0
2015-Apr-16 04:32N 35°36' E 140°07'0 0.0
2015-Apr-16 03:34N 35°36' E 140°07'0 0.0
2015-Apr-16 02:33N 35°36' E 140°07'0 0.0
2015-Apr-16 01:34N 35°36' E 140°07'0 0.0
2015-Apr-16 00:33N 35°36' E 140°07'0 0.0
2015-Apr-15 23:33N 35°36' E 140°07'8 7.2
2015-Apr-15 22:30N 35°31' E 139°59'0 0.1
2015-Apr-15 21:30N 35°31' E 139°59'0 0.0
2015-Apr-15 20:18N 35°31' E 139°59'0 0.1
2015-Apr-15 19:30N 35°31' E 139°59'0 0.0
2015-Apr-15 18:18N 35°31' E 139°59'0 0.0
2015-Apr-15 17:24N 35°31' E 139°59'0 0.0
2015-Apr-15 16:30N 35°31' E 139°59'0 0.0
2015-Apr-15 15:33N 35°31' E 139°59'0 0.0
2015-Apr-15 14:27N 35°31' E 139°59'0 0.1
2015-Apr-15 13:34N 35°31' E 139°59'0 0.0
2015-Apr-15 12:25N 35°31' E 139°59'0 0.0
2015-Apr-15 11:31N 35°31' E 139°59'0 0.0
2015-Apr-15 10:31N 35°31' E 139°59'0 0.0
2015-Apr-15 08:33N 35°31' E 139°59'0 0.0
2015-Apr-15 07:33N 35°31' E 139°59'0 0.0
2015-Apr-15 06:27N 35°31' E 139°59'0 0.0
2015-Apr-15 04:09N 35°31' E 139°59'0 0.0
2015-Apr-15 03:31N 35°31' E 139°59'0 0.0
2015-Apr-15 02:32N 35°31' E 139°59'0 0.0
2015-Apr-15 01:31N 35°31' E 139°59'0 0.0
2015-Apr-15 00:32N 35°31' E 139°59'0 0.0
2015-Apr-14 23:33N 35°31' E 139°59'0 0.0
2015-Apr-14 22:32N 35°31' E 139°59'0 0.0
2015-Apr-14 21:27N 35°31' E 139°59'0 0.0
2015-Apr-14 20:26N 35°31' E 139°59'0 0.0
2015-Apr-14 19:33N 35°31' E 139°59'0 0.0
2015-Apr-14 18:17N 35°31' E 139°59'0 0.1
2015-Apr-14 17:23N 35°31' E 139°59'0 0.1
2015-Apr-14 16:32N 35°31' E 139°59'0 0.0
2015-Apr-14 15:26N 35°31' E 139°59'0 0.1
2015-Apr-14 14:29N 35°31' E 139°59'0 0.0
2015-Apr-14 13:29N 35°31' E 139°59'0 0.0
2015-Apr-14 12:29N 35°31' E 139°59'0 0.0
2015-Apr-14 11:17N 35°31' E 139°59'3 3.6
2015-Apr-14 10:33N 35°30' E 139°56'1212.1
2015-Apr-14 09:34N 35°22' E 139°45'1111.4
2015-Apr-14 08:33N 35°10' E 139°47'1211.8
2015-Apr-14 07:33N 35°01' E 139°39'56 1.8
2015-Apr-12 23:19N 35°02' E 138°30'180 3.8
2015-Apr-11 00:32N 34°05' E 135°03'7 6.7
2015-Apr-10 23:33N 34°10' E 135°09'0 0.0
2015-Apr-10 22:29N 34°10' E 135°09'0 0.0
2015-Apr-10 21:23N 34°10' E 135°09'0 0.0
2015-Apr-10 20:32N 34°10' E 135°09'0 0.0
2015-Apr-10 19:32N 34°10' E 135°09'0 0.0
2015-Apr-10 18:32N 34°10' E 135°09'0 0.0
2015-Apr-10 17:32N 34°10' E 135°09'0 0.0
2015-Apr-10 16:32N 34°10' E 135°09'0 0.0
2015-Apr-10 15:32N 34°10' E 135°09'0 0.0
2015-Apr-10 14:32N 34°10' E 135°09'0 0.0
2015-Apr-10 13:32N 34°10' E 135°09'0 0.1
2015-Apr-10 12:32N 34°10' E 135°09'0 0.0
2015-Apr-10 11:32N 34°10' E 135°09'0 0.0
2015-Apr-10 10:32N 34°10' E 135°09'0 0.0
2015-Apr-10 09:23N 34°10' E 135°09'0 0.0
2015-Apr-10 08:29N 34°10' E 135°09'0 0.0
2015-Apr-10 07:30N 34°10' E 135°09'0 0.1
2015-Apr-10 06:31N 34°10' E 135°09'0 0.0
2015-Apr-10 05:33N 34°10' E 135°09'0 0.0
2015-Apr-10 04:33N 34°10' E 135°09'0 0.0
2015-Apr-10 03:33N 34°10' E 135°09'0 0.0
2015-Apr-10 02:27N 34°10' E 135°09'0 0.1
2015-Apr-10 01:33N 34°10' E 135°09'0 0.0
2015-Apr-10 00:33N 34°10' E 135°09'0 0.0
2015-Apr-09 23:30N 34°10' E 135°09'0 0.0
2015-Apr-09 22:30N 34°10' E 135°09'0 0.0
2015-Apr-09 21:30N 34°10' E 135°09'0 0.0
2015-Apr-09 20:33N 34°10' E 135°09'0 0.0
2015-Apr-09 19:33N 34°10' E 135°09'0 0.0
2015-Apr-09 18:33N 34°10' E 135°09'0 0.0
2015-Apr-09 17:33N 34°10' E 135°09'0 0.0
2015-Apr-09 16:33N 34°10' E 135°09'0 0.1
2015-Apr-09 15:33N 34°10' E 135°09'0 0.0
2015-Apr-09 14:30N 34°10' E 135°09'0 0.0
2015-Apr-09 13:33N 34°10' E 135°09'0 0.0
2015-Apr-09 12:30N 34°10' E 135°09'0 0.1
2015-Apr-09 11:33N 34°10' E 135°09'0 0.0
2015-Apr-09 10:30N 34°10' E 135°09'0 0.1
2015-Apr-09 09:33N 34°10' E 135°09'3 2.2
2015-Apr-09 08:10N 34°07' E 135°08'0 0.0
2015-Apr-09 07:33N 34°07' E 135°08'0 0.0
2015-Apr-09 05:26N 34°07' E 135°08'0 0.0
2015-Apr-09 04:22N 34°07' E 135°08'1 0.7
2015-Apr-09 02:33N 34°08' E 135°07'2 1.7
2015-Apr-09 01:33N 34°09' E 135°08'0 0.1
2015-Apr-09 00:33N 34°09' E 135°08'0 0.0
2015-Apr-08 23:33N 34°09' E 135°08'0 0.0
2015-Apr-08 22:33N 34°09' E 135°08'0 0.0
2015-Apr-08 21:33N 34°09' E 135°08'0 0.0
2015-Apr-08 20:33N 34°09' E 135°08'0 0.0
2015-Apr-08 19:33N 34°09' E 135°08'0 0.0
2015-Apr-08 18:33N 34°09' E 135°08'0 0.1
2015-Apr-08 17:33N 34°09' E 135°08'0 0.0
2015-Apr-08 16:33N 34°09' E 135°08'0 0.0
2015-Apr-08 15:33N 34°09' E 135°08'0 0.0
2015-Apr-08 14:33N 34°09' E 135°08'0 0.1
2015-Apr-08 13:33N 34°09' E 135°08'0 0.1
2015-Apr-08 12:33N 34°09' E 135°08'0 0.0
2015-Apr-08 11:33N 34°09' E 135°08'0 0.1
2015-Apr-08 10:33N 34°09' E 135°08'0 0.0
2015-Apr-08 09:33N 34°09' E 135°08'0 0.0
2015-Apr-08 08:33N 34°09' E 135°08'0 0.0
2015-Apr-08 07:33N 34°09' E 135°08'  

Dump ship's entire track history